sensor_id;sensor_type;location;lat;lon;timestamp;temperature;humidity
27413;DHT22;14871;52.702;5.230;2023-03-08T00:01:25;4.20;99.90
27413;DHT22;14871;52.702;5.230;2023-03-08T00:03:56;4.20;99.90
27413;DHT22;14871;52.702;5.230;2023-03-08T00:06:23;4.20;99.90
27413;DHT22;14871;52.702;5.230;2023-03-08T00:08:48;4.00;99.90
27413;DHT22;14871;52.702;5.230;2023-03-08T00:11:15;4.30;99.90
27413;DHT22;14871;52.702;5.230;2023-03-08T00:13:41;4.20;99.90
27413;DHT22;14871;52.702;5.230;2023-03-08T00:16:09;4.10;99.90
27413;DHT22;14871;52.702;5.230;2023-03-08T00:18:35;4.00;99.90
27413;DHT22;14871;52.702;5.230;2023-03-08T00:21:04;4.00;99.90
27413;DHT22;14871;52.702;5.230;2023-03-08T00:23:30;4.10;99.90
27413;DHT22;14871;52.702;5.230;2023-03-08T00:25:56;4.10;99.90
27413;DHT22;14871;52.702;5.230;2023-03-08T00:28:22;4.10;99.90
27413;DHT22;14871;52.702;5.230;2023-03-08T00:30:55;4.20;99.90
27413;DHT22;14871;52.702;5.230;2023-03-08T00:33:21;4.20;99.90
27413;DHT22;14871;52.702;5.230;2023-03-08T00:35:55;4.20;99.90
27413;DHT22;14871;52.702;5.230;2023-03-08T00:38:20;4.10;99.90
27413;DHT22;14871;52.702;5.230;2023-03-08T00:40:46;4.10;99.90
27413;DHT22;14871;52.702;5.230;2023-03-08T00:43:12;4.10;99.90
27413;DHT22;14871;52.702;5.230;2023-03-08T00:45:37;4.10;99.90
27413;DHT22;14871;52.702;5.230;2023-03-08T00:48:03;4.10;99.90
27413;DHT22;14871;52.702;5.230;2023-03-08T00:50:28;4.10;99.90
27413;DHT22;14871;52.702;5.230;2023-03-08T00:52:54;4.00;99.90
27413;DHT22;14871;52.702;5.230;2023-03-08T00:55:19;3.90;99.90
27413;DHT22;14871;52.702;5.230;2023-03-08T00:57:45;3.90;99.90
27413;DHT22;14871;52.702;5.230;2023-03-08T01:00:11;4.10;99.90
27413;DHT22;14871;52.702;5.230;2023-03-08T01:02:37;4.00;99.90
27413;DHT22;14871;52.702;5.230;2023-03-08T01:05:06;3.90;99.90
27413;DHT22;14871;52.702;5.230;2023-03-08T01:07:32;3.90;99.90
27413;DHT22;14871;52.702;5.230;2023-03-08T01:09:57;3.90;99.90
27413;DHT22;14871;52.702;5.230;2023-03-08T01:12:23;4.00;99.90
27413;DHT22;14871;52.702;5.230;2023-03-08T01:14:51;4.00;99.90
27413;DHT22;14871;52.702;5.230;2023-03-08T01:17:17;4.00;99.90
27413;DHT22;14871;52.702;5.230;2023-03-08T01:19:42;4.00;99.90
27413;DHT22;14871;52.702;5.230;2023-03-08T01:22:08;4.00;99.90
27413;DHT22;14871;52.702;5.230;2023-03-08T01:24:33;3.90;99.90
27413;DHT22;14871;52.702;5.230;2023-03-08T01:26:59;3.90;99.90
27413;DHT22;14871;52.702;5.230;2023-03-08T01:29:26;3.90;99.90
27413;DHT22;14871;52.702;5.230;2023-03-08T01:31:52;3.90;99.90
27413;DHT22;14871;52.702;5.230;2023-03-08T01:34:18;3.80;99.90
27413;DHT22;14871;52.702;5.230;2023-03-08T01:36:44;3.90;99.90
27413;DHT22;14871;52.702;5.230;2023-03-08T01:39:09;3.80;99.90
27413;DHT22;14871;52.702;5.230;2023-03-08T01:41:35;3.90;99.90
27413;DHT22;14871;52.702;5.230;2023-03-08T01:44:01;3.90;99.90
27413;DHT22;14871;52.702;5.230;2023-03-08T01:46:31;3.90;99.90
27413;DHT22;14871;52.702;5.230;2023-03-08T01:54:18;4.00;99.90
27413;DHT22;14871;52.702;5.230;2023-03-08T01:56:46;3.90;99.90
27413;DHT22;14871;52.702;5.230;2023-03-08T01:59:13;3.90;99.90
27413;DHT22;14871;52.702;5.230;2023-03-08T02:01:39;3.70;99.90
27413;DHT22;14871;52.702;5.230;2023-03-08T02:04:06;3.90;99.90
27413;DHT22;14871;52.702;5.230;2023-03-08T02:06:32;3.90;99.90
27413;DHT22;14871;52.702;5.230;2023-03-08T02:08:59;3.90;99.90
27413;DHT22;14871;52.702;5.230;2023-03-08T02:11:28;3.80;99.90
27413;DHT22;14871;52.702;5.230;2023-03-08T02:13:55;3.90;99.90
27413;DHT22;14871;52.702;5.230;2023-03-08T02:16:21;3.70;99.90
27413;DHT22;14871;52.702;5.230;2023-03-08T02:18:56;3.80;99.90
27413;DHT22;14871;52.702;5.230;2023-03-08T02:21:23;3.90;99.90
27413;DHT22;14871;52.702;5.230;2023-03-08T02:23:48;3.60;99.90
27413;DHT22;14871;52.702;5.230;2023-03-08T02:26:15;3.60;99.90
27413;DHT22;14871;52.702;5.230;2023-03-08T02:28:41;3.60;99.90
27413;DHT22;14871;52.702;5.230;2023-03-08T02:31:06;3.70;99.90
27413;DHT22;14871;52.702;5.230;2023-03-08T02:33:32;3.70;99.90
27413;DHT22;14871;52.702;5.230;2023-03-08T02:36:05;3.50;99.90
27413;DHT22;14871;52.702;5.230;2023-03-08T02:38:32;3.60;99.90
27413;DHT22;14871;52.702;5.230;2023-03-08T02:40:58;3.70;99.90
27413;DHT22;14871;52.702;5.230;2023-03-08T02:43:23;3.80;99.90
27413;DHT22;14871;52.702;5.230;2023-03-08T02:45:49;3.80;99.90
27413;DHT22;14871;52.702;5.230;2023-03-08T02:48:15;3.80;99.90
27413;DHT22;14871;52.702;5.230;2023-03-08T02:50:41;3.70;99.90
27413;DHT22;14871;52.702;5.230;2023-03-08T02:53:07;3.70;99.90
27413;DHT22;14871;52.702;5.230;2023-03-08T02:55:33;3.80;99.90
27413;DHT22;14871;52.702;5.230;2023-03-08T02:58:05;3.70;99.90
27413;DHT22;14871;52.702;5.230;2023-03-08T03:00:31;3.70;99.90
27413;DHT22;14871;52.702;5.230;2023-03-08T03:02:57;3.80;99.90
27413;DHT22;14871;52.702;5.230;2023-03-08T03:05:23;3.80;99.90
27413;DHT22;14871;52.702;5.230;2023-03-08T03:07:48;3.90;99.90
27413;DHT22;14871;52.702;5.230;2023-03-08T03:10:14;3.90;99.90
27413;DHT22;14871;52.702;5.230;2023-03-08T03:12:40;3.80;99.90
27413;DHT22;14871;52.702;5.230;2023-03-08T03:15:07;3.90;99.90
27413;DHT22;14871;52.702;5.230;2023-03-08T03:17:33;3.80;99.90
27413;DHT22;14871;52.702;5.230;2023-03-08T03:20:02;3.90;99.90
27413;DHT22;14871;52.702;5.230;2023-03-08T03:22:29;3.80;99.90
27413;DHT22;14871;52.702;5.230;2023-03-08T03:24:55;3.90;99.90
27413;DHT22;14871;52.702;5.230;2023-03-08T03:27:20;3.80;99.90
27413;DHT22;14871;52.702;5.230;2023-03-08T03:29:46;4.00;99.90
27413;DHT22;14871;52.702;5.230;2023-03-08T03:32:11;3.80;99.90
27413;DHT22;14871;52.702;5.230;2023-03-08T03:34:37;3.90;99.90
27413;DHT22;14871;52.702;5.230;2023-03-08T03:37:03;3.80;99.90
27413;DHT22;14871;52.702;5.230;2023-03-08T03:39:28;3.90;99.90
27413;DHT22;14871;52.702;5.230;2023-03-08T03:41:59;3.80;99.90
27413;DHT22;14871;52.702;5.230;2023-03-08T03:44:28;3.70;99.90
27413;DHT22;14871;52.702;5.230;2023-03-08T03:46:54;3.80;99.90
27413;DHT22;14871;52.702;5.230;2023-03-08T03:49:20;3.80;99.90
27413;DHT22;14871;52.702;5.230;2023-03-08T03:51:46;3.70;99.90
27413;DHT22;14871;52.702;5.230;2023-03-08T03:54:11;3.80;99.90
27413;DHT22;14871;52.702;5.230;2023-03-08T03:56:37;3.70;99.90
27413;DHT22;14871;52.702;5.230;2023-03-08T03:59:02;3.70;99.90
27413;DHT22;14871;52.702;5.230;2023-03-08T04:01:30;3.70;99.90
27413;DHT22;14871;52.702;5.230;2023-03-08T04:03:56;3.80;99.90
27413;DHT22;14871;52.702;5.230;2023-03-08T04:06:22;3.80;99.90
27413;DHT22;14871;52.702;5.230;2023-03-08T04:08:51;3.70;99.90
27413;DHT22;14871;52.702;5.230;2023-03-08T04:11:20;3.70;99.90
27413;DHT22;14871;52.702;5.230;2023-03-08T04:13:47;3.70;99.90
27413;DHT22;14871;52.702;5.230;2023-03-08T04:16:27;3.60;99.90
27413;DHT22;14871;52.702;5.230;2023-03-08T04:18:57;3.60;99.90
27413;DHT22;14871;52.702;5.230;2023-03-08T04:21:23;3.60;99.90
27413;DHT22;14871;52.702;5.230;2023-03-08T04:23:49;3.60;99.90
27413;DHT22;14871;52.702;5.230;2023-03-08T04:26:15;3.50;99.90
27413;DHT22;14871;52.702;5.230;2023-03-08T04:28:41;3.50;99.90
27413;DHT22;14871;52.702;5.230;2023-03-08T04:31:22;3.50;99.90
27413;DHT22;14871;52.702;5.230;2023-03-08T04:33:49;3.50;99.90
27413;DHT22;14871;52.702;5.230;2023-03-08T04:36:15;3.50;99.90
27413;DHT22;14871;52.702;5.230;2023-03-08T04:38:42;3.40;99.90
27413;DHT22;14871;52.702;5.230;2023-03-08T04:41:08;3.40;99.90
27413;DHT22;14871;52.702;5.230;2023-03-08T04:43:45;3.40;99.90
27413;DHT22;14871;52.702;5.230;2023-03-08T04:46:11;3.40;99.90
27413;DHT22;14871;52.702;5.230;2023-03-08T04:48:37;3.40;99.90
27413;DHT22;14871;52.702;5.230;2023-03-08T04:51:04;3.40;99.90
27413;DHT22;14871;52.702;5.230;2023-03-08T04:53:31;3.40;99.90
27413;DHT22;14871;52.702;5.230;2023-03-08T04:55:57;3.40;99.90
27413;DHT22;14871;52.702;5.230;2023-03-08T04:58:27;3.30;99.90
27413;DHT22;14871;52.702;5.230;2023-03-08T05:00:53;3.30;99.90
27413;DHT22;14871;52.702;5.230;2023-03-08T05:03:19;3.40;99.90
27413;DHT22;14871;52.702;5.230;2023-03-08T05:05:50;3.40;99.90
27413;DHT22;14871;52.702;5.230;2023-03-08T05:08:16;3.40;99.90
27413;DHT22;14871;52.702;5.230;2023-03-08T05:10:52;3.40;99.90
27413;DHT22;14871;52.702;5.230;2023-03-08T05:13:19;3.40;99.90
27413;DHT22;14871;52.702;5.230;2023-03-08T05:15:45;3.40;99.90
27413;DHT22;14871;52.702;5.230;2023-03-08T05:18:10;3.40;99.90
27413;DHT22;14871;52.702;5.230;2023-03-08T05:20:36;3.40;99.90
27413;DHT22;14871;52.702;5.230;2023-03-08T05:23:02;3.50;99.90
27413;DHT22;14871;52.702;5.230;2023-03-08T05:25:28;3.50;99.90
27413;DHT22;14871;52.702;5.230;2023-03-08T05:27:55;3.40;99.90
27413;DHT22;14871;52.702;5.230;2023-03-08T05:30:21;3.50;99.90
27413;DHT22;14871;52.702;5.230;2023-03-08T05:32:46;3.50;99.90
27413;DHT22;14871;52.702;5.230;2023-03-08T05:35:12;3.50;99.90
27413;DHT22;14871;52.702;5.230;2023-03-08T05:37:38;3.50;99.90
27413;DHT22;14871;52.702;5.230;2023-03-08T05:40:04;3.50;99.90
27413;DHT22;14871;52.702;5.230;2023-03-08T05:42:31;3.50;99.90
27413;DHT22;14871;52.702;5.230;2023-03-08T05:44:57;3.50;99.90
27413;DHT22;14871;52.702;5.230;2023-03-08T05:47:22;3.50;99.90
27413;DHT22;14871;52.702;5.230;2023-03-08T05:49:48;3.50;99.90
27413;DHT22;14871;52.702;5.230;2023-03-08T05:52:14;3.50;99.90
27413;DHT22;14871;52.702;5.230;2023-03-08T05:54:40;3.50;99.90
27413;DHT22;14871;52.702;5.230;2023-03-08T05:57:06;3.50;99.90
27413;DHT22;14871;52.702;5.230;2023-03-08T05:59:31;3.40;99.90
27413;DHT22;14871;52.702;5.230;2023-03-08T06:01:57;3.40;99.90
27413;DHT22;14871;52.702;5.230;2023-03-08T06:04:23;3.40;99.90
27413;DHT22;14871;52.702;5.230;2023-03-08T06:06:48;3.40;99.90
27413;DHT22;14871;52.702;5.230;2023-03-08T06:09:14;3.40;99.90
27413;DHT22;14871;52.702;5.230;2023-03-08T06:11:39;3.40;99.90
27413;DHT22;14871;52.702;5.230;2023-03-08T06:14:05;3.40;99.90
27413;DHT22;14871;52.702;5.230;2023-03-08T06:16:31;3.30;99.90
27413;DHT22;14871;52.702;5.230;2023-03-08T06:18:56;3.40;99.90
27413;DHT22;14871;52.702;5.230;2023-03-08T06:21:22;3.40;99.90
27413;DHT22;14871;52.702;5.230;2023-03-08T06:23:48;3.40;99.90
27413;DHT22;14871;52.702;5.230;2023-03-08T06:26:14;3.40;99.90
27413;DHT22;14871;52.702;5.230;2023-03-08T06:28:40;3.40;99.90
27413;DHT22;14871;52.702;5.230;2023-03-08T06:31:07;3.40;99.90
27413;DHT22;14871;52.702;5.230;2023-03-08T06:33:33;3.40;99.90
27413;DHT22;14871;52.702;5.230;2023-03-08T06:36:10;3.40;99.90
27413;DHT22;14871;52.702;5.230;2023-03-08T06:38:37;3.40;99.90
27413;DHT22;14871;52.702;5.230;2023-03-08T06:41:04;3.40;99.90
27413;DHT22;14871;52.702;5.230;2023-03-08T06:43:30;3.40;99.90
27413;DHT22;14871;52.702;5.230;2023-03-08T06:45:55;3.50;99.90
27413;DHT22;14871;52.702;5.230;2023-03-08T06:48:21;3.50;99.90
27413;DHT22;14871;52.702;5.230;2023-03-08T06:50:47;3.50;99.90
27413;DHT22;14871;52.702;5.230;2023-03-08T06:53:13;3.50;99.90
27413;DHT22;14871;52.702;5.230;2023-03-08T06:55:39;3.60;99.90
27413;DHT22;14871;52.702;5.230;2023-03-08T06:58:06;3.60;99.90
27413;DHT22;14871;52.702;5.230;2023-03-08T07:00:32;3.60;99.90
27413;DHT22;14871;52.702;5.230;2023-03-08T07:02:58;3.60;99.90
27413;DHT22;14871;52.702;5.230;2023-03-08T07:05:24;3.70;99.90
27413;DHT22;14871;52.702;5.230;2023-03-08T07:07:50;3.70;99.90
27413;DHT22;14871;52.702;5.230;2023-03-08T07:10:17;3.80;99.90
27413;DHT22;14871;52.702;5.230;2023-03-08T07:12:44;3.80;99.90
27413;DHT22;14871;52.702;5.230;2023-03-08T07:15:14;3.90;99.90
27413;DHT22;14871;52.702;5.230;2023-03-08T07:17:41;3.90;99.90
27413;DHT22;14871;52.702;5.230;2023-03-08T07:20:07;4.00;99.90
27413;DHT22;14871;52.702;5.230;2023-03-08T07:22:33;4.10;99.90
27413;DHT22;14871;52.702;5.230;2023-03-08T07:24:58;4.20;99.90
27413;DHT22;14871;52.702;5.230;2023-03-08T07:27:24;4.20;99.90
27413;DHT22;14871;52.702;5.230;2023-03-08T07:29:50;4.30;99.90
27413;DHT22;14871;52.702;5.230;2023-03-08T07:32:16;4.50;99.90
27413;DHT22;14871;52.702;5.230;2023-03-08T07:34:43;4.60;99.90
27413;DHT22;14871;52.702;5.230;2023-03-08T07:37:12;4.70;99.90
27413;DHT22;14871;52.702;5.230;2023-03-08T07:39:38;4.80;99.90
27413;DHT22;14871;52.702;5.230;2023-03-08T07:42:04;4.80;99.90
27413;DHT22;14871;52.702;5.230;2023-03-08T07:44:30;4.80;99.90
27413;DHT22;14871;52.702;5.230;2023-03-08T07:46:55;4.90;99.90
27413;DHT22;14871;52.702;5.230;2023-03-08T07:49:21;4.90;99.90
27413;DHT22;14871;52.702;5.230;2023-03-08T07:51:50;4.90;99.90
27413;DHT22;14871;52.702;5.230;2023-03-08T07:54:18;5.00;99.90
27413;DHT22;14871;52.702;5.230;2023-03-08T07:56:44;5.10;99.90
27413;DHT22;14871;52.702;5.230;2023-03-08T07:59:10;5.10;99.90
27413;DHT22;14871;52.702;5.230;2023-03-08T08:01:36;5.10;99.90
27413;DHT22;14871;52.702;5.230;2023-03-08T08:04:01;5.20;99.90
27413;DHT22;14871;52.702;5.230;2023-03-08T08:06:28;5.20;99.90
27413;DHT22;14871;52.702;5.230;2023-03-08T08:08:56;5.20;99.90
27413;DHT22;14871;52.702;5.230;2023-03-08T08:11:22;5.30;99.90
27413;DHT22;14871;52.702;5.230;2023-03-08T08:13:48;5.40;99.90
27413;DHT22;14871;52.702;5.230;2023-03-08T08:16:15;5.40;99.90
27413;DHT22;14871;52.702;5.230;2023-03-08T08:18:40;5.50;99.90
27413;DHT22;14871;52.702;5.230;2023-03-08T08:21:10;5.70;99.90
27413;DHT22;14871;52.702;5.230;2023-03-08T08:23:36;5.80;99.90
27413;DHT22;14871;52.702;5.230;2023-03-08T08:26:07;5.90;99.90
27413;DHT22;14871;52.702;5.230;2023-03-08T08:28:34;5.90;99.90
27413;DHT22;14871;52.702;5.230;2023-03-08T08:31:02;5.90;99.90
27413;DHT22;14871;52.702;5.230;2023-03-08T08:33:29;5.90;99.90
27413;DHT22;14871;52.702;5.230;2023-03-08T08:35:55;6.00;99.90
27413;DHT22;14871;52.702;5.230;2023-03-08T08:38:21;6.00;99.90
27413;DHT22;14871;52.702;5.230;2023-03-08T08:40:47;6.00;99.90
27413;DHT22;14871;52.702;5.230;2023-03-08T08:43:13;6.00;99.90
27413;DHT22;14871;52.702;5.230;2023-03-08T08:45:47;6.10;99.90
27413;DHT22;14871;52.702;5.230;2023-03-08T08:48:13;6.10;99.90
27413;DHT22;14871;52.702;5.230;2023-03-08T08:50:39;6.10;99.90
27413;DHT22;14871;52.702;5.230;2023-03-08T08:53:06;6.20;99.90
27413;DHT22;14871;52.702;5.230;2023-03-08T08:55:32;6.20;99.90
27413;DHT22;14871;52.702;5.230;2023-03-08T08:57:57;6.10;99.90
27413;DHT22;14871;52.702;5.230;2023-03-08T09:00:23;6.20;99.90
27413;DHT22;14871;52.702;5.230;2023-03-08T09:02:49;6.20;99.90
27413;DHT22;14871;52.702;5.230;2023-03-08T09:05:14;6.30;99.90
27413;DHT22;14871;52.702;5.230;2023-03-08T09:07:40;6.20;99.90
27413;DHT22;14871;52.702;5.230;2023-03-08T09:10:06;6.30;99.90
27413;DHT22;14871;52.702;5.230;2023-03-08T09:12:32;6.40;99.90
27413;DHT22;14871;52.702;5.230;2023-03-08T09:14:58;6.50;99.90
27413;DHT22;14871;52.702;5.230;2023-03-08T09:17:23;6.50;99.90
27413;DHT22;14871;52.702;5.230;2023-03-08T09:19:49;6.50;99.90
27413;DHT22;14871;52.702;5.230;2023-03-08T09:22:16;6.70;99.90
27413;DHT22;14871;52.702;5.230;2023-03-08T09:24:41;6.80;99.90
27413;DHT22;14871;52.702;5.230;2023-03-08T09:27:07;7.00;99.90
27413;DHT22;14871;52.702;5.230;2023-03-08T09:29:33;7.00;99.90
27413;DHT22;14871;52.702;5.230;2023-03-08T09:31:59;7.10;99.90
27413;DHT22;14871;52.702;5.230;2023-03-08T09:34:25;7.00;99.90
27413;DHT22;14871;52.702;5.230;2023-03-08T09:36:51;6.90;99.90
27413;DHT22;14871;52.702;5.230;2023-03-08T09:39:16;7.20;99.90
27413;DHT22;14871;52.702;5.230;2023-03-08T09:41:51;7.20;99.90
27413;DHT22;14871;52.702;5.230;2023-03-08T09:47:46;7.70;99.90
27413;DHT22;14871;52.702;5.230;2023-03-08T09:52:48;8.20;99.90
27413;DHT22;14871;52.702;5.230;2023-03-08T09:55:27;8.20;99.90
27413;DHT22;14871;52.702;5.230;2023-03-08T10:00:35;8.60;99.90
27413;DHT22;14871;52.702;5.230;2023-03-08T10:03:20;8.80;99.90
27413;DHT22;14871;52.702;5.230;2023-03-08T10:06:18;9.00;99.90
27413;DHT22;14871;52.702;5.230;2023-03-08T10:14:50;10.40;99.90
27413;DHT22;14871;52.702;5.230;2023-03-08T10:17:24;10.40;99.90
27413;DHT22;14871;52.702;5.230;2023-03-08T10:19:56;10.70;99.90
27413;DHT22;14871;52.702;5.230;2023-03-08T10:24:53;10.60;99.90
27413;DHT22;14871;52.702;5.230;2023-03-08T10:27:30;10.70;99.90
27413;DHT22;14871;52.702;5.230;2023-03-08T10:29:58;10.60;99.90
27413;DHT22;14871;52.702;5.230;2023-03-08T10:32:25;10.40;99.70
27413;DHT22;14871;52.702;5.230;2023-03-08T10:34:51;10.30;99.40
27413;DHT22;14871;52.702;5.230;2023-03-08T10:37:20;10.20;99.20
27413;DHT22;14871;52.702;5.230;2023-03-08T10:39:52;10.20;98.50
27413;DHT22;14871;52.702;5.230;2023-03-08T10:42:24;9.90;97.90
27413;DHT22;14871;52.702;5.230;2023-03-08T10:47:31;9.80;97.90
27413;DHT22;14871;52.702;5.230;2023-03-08T10:50:14;9.70;97.30
27413;DHT22;14871;52.702;5.230;2023-03-08T10:52:41;9.50;97.60
27413;DHT22;14871;52.702;5.230;2023-03-08T10:57:40;9.00;98.90
27413;DHT22;14871;52.702;5.230;2023-03-08T11:02:48;9.20;99.40
27413;DHT22;14871;52.702;5.230;2023-03-08T11:05:25;9.30;99.70
27413;DHT22;14871;52.702;5.230;2023-03-08T11:07:55;9.40;99.90
27413;DHT22;14871;52.702;5.230;2023-03-08T11:10:23;9.20;99.20
27413;DHT22;14871;52.702;5.230;2023-03-08T11:15:36;9.20;99.30
27413;DHT22;14871;52.702;5.230;2023-03-08T11:18:33;9.00;99.60
27413;DHT22;14871;52.702;5.230;2023-03-08T11:24:32;8.90;99.60
27413;DHT22;14871;52.702;5.230;2023-03-08T11:29:44;8.40;99.90
27413;DHT22;14871;52.702;5.230;2023-03-08T11:35:27;8.50;99.90
27413;DHT22;14871;52.702;5.230;2023-03-08T11:40:46;8.50;99.90
27413;DHT22;14871;52.702;5.230;2023-03-08T11:43:39;8.30;99.90
27413;DHT22;14871;52.702;5.230;2023-03-08T11:46:21;8.20;99.90
27413;DHT22;14871;52.702;5.230;2023-03-08T11:49:06;8.40;99.90
27413;DHT22;14871;52.702;5.230;2023-03-08T11:57:12;8.30;99.90
27413;DHT22;14871;52.702;5.230;2023-03-08T12:07:16;8.70;99.90
27413;DHT22;14871;52.702;5.230;2023-03-08T12:12:34;8.60;99.90
27413;DHT22;14871;52.702;5.230;2023-03-08T12:17:47;8.70;99.90
27413;DHT22;14871;52.702;5.230;2023-03-08T12:20:15;8.70;99.90
27413;DHT22;14871;52.702;5.230;2023-03-08T12:22:46;8.60;99.90
27413;DHT22;14871;52.702;5.230;2023-03-08T12:25:31;8.70;99.90
27413;DHT22;14871;52.702;5.230;2023-03-08T12:33:14;8.80;99.90
27413;DHT22;14871;52.702;5.230;2023-03-08T12:35:57;8.90;99.90
27413;DHT22;14871;52.702;5.230;2023-03-08T12:40:53;8.90;99.90
27413;DHT22;14871;52.702;5.230;2023-03-08T12:56:02;8.50;99.90
27413;DHT22;14871;52.702;5.230;2023-03-08T12:58:29;8.50;99.70
27413;DHT22;14871;52.702;5.230;2023-03-08T13:01:02;8.60;99.90
27413;DHT22;14871;52.702;5.230;2023-03-08T13:03:38;8.70;99.90
27413;DHT22;14871;52.702;5.230;2023-03-08T13:06:41;8.80;99.90
27413;DHT22;14871;52.702;5.230;2023-03-08T13:09:33;8.80;99.90
27413;DHT22;14871;52.702;5.230;2023-03-08T13:12:22;8.90;99.90
27413;DHT22;14871;52.702;5.230;2023-03-08T13:15:20;9.00;99.90
27413;DHT22;14871;52.702;5.230;2023-03-08T13:17:52;9.00;99.90
27413;DHT22;14871;52.702;5.230;2023-03-08T13:20:48;9.00;99.90
27413;DHT22;14871;52.702;5.230;2023-03-08T13:23:39;9.00;99.90
27413;DHT22;14871;52.702;5.230;2023-03-08T13:28:42;9.10;99.90
27413;DHT22;14871;52.702;5.230;2023-03-08T13:31:22;9.00;99.90
27413;DHT22;14871;52.702;5.230;2023-03-08T13:33:51;9.00;99.90
27413;DHT22;14871;52.702;5.230;2023-03-08T13:36:22;9.00;99.90
27413;DHT22;14871;52.702;5.230;2023-03-08T13:38:59;9.00;99.90
27413;DHT22;14871;52.702;5.230;2023-03-08T13:41:32;9.20;99.90
27413;DHT22;14871;52.702;5.230;2023-03-08T13:44:06;9.30;99.90
27413;DHT22;14871;52.702;5.230;2023-03-08T13:46:35;9.40;99.90
27413;DHT22;14871;52.702;5.230;2023-03-08T13:49:01;9.50;99.90
27413;DHT22;14871;52.702;5.230;2023-03-08T13:51:28;9.70;99.90
27413;DHT22;14871;52.702;5.230;2023-03-08T13:53:54;9.90;99.50
27413;DHT22;14871;52.702;5.230;2023-03-08T13:56:23;9.90;99.00
27413;DHT22;14871;52.702;5.230;2023-03-08T13:58:50;9.80;98.60
27413;DHT22;14871;52.702;5.230;2023-03-08T14:01:21;10.10;98.90
27413;DHT22;14871;52.702;5.230;2023-03-08T14:03:47;10.30;98.90
27413;DHT22;14871;52.702;5.230;2023-03-08T14:06:25;10.40;98.70
27413;DHT22;14871;52.702;5.230;2023-03-08T14:08:53;10.40;97.90
27413;DHT22;14871;52.702;5.230;2023-03-08T14:11:29;10.20;97.40
27413;DHT22;14871;52.702;5.230;2023-03-08T14:13:56;10.00;96.90
27413;DHT22;14871;52.702;5.230;2023-03-08T14:16:35;9.90;97.20
27413;DHT22;14871;52.702;5.230;2023-03-08T14:19:20;9.90;97.20
27413;DHT22;14871;52.702;5.230;2023-03-08T14:24:34;9.60;96.50
27413;DHT22;14871;52.702;5.230;2023-03-08T14:30:13;9.70;96.20
27413;DHT22;14871;52.702;5.230;2023-03-08T14:32:39;9.50;96.50
27413;DHT22;14871;52.702;5.230;2023-03-08T14:35:21;9.50;96.10
27413;DHT22;14871;52.702;5.230;2023-03-08T14:37:47;9.50;96.30
27413;DHT22;14871;52.702;5.230;2023-03-08T14:42:45;9.30;96.00
27413;DHT22;14871;52.702;5.230;2023-03-08T14:45:31;9.30;96.50
27413;DHT22;14871;52.702;5.230;2023-03-08T14:47:59;9.20;95.80
27413;DHT22;14871;52.702;5.230;2023-03-08T14:50:30;9.10;96.30
27413;DHT22;14871;52.702;5.230;2023-03-08T14:52:58;9.00;96.70
27413;DHT22;14871;52.702;5.230;2023-03-08T14:55:29;9.10;97.20
27413;DHT22;14871;52.702;5.230;2023-03-08T14:58:22;9.10;97.20
27413;DHT22;14871;52.702;5.230;2023-03-08T15:00:50;9.10;96.30
27413;DHT22;14871;52.702;5.230;2023-03-08T15:03:15;9.20;96.70
27413;DHT22;14871;52.702;5.230;2023-03-08T15:05:41;9.10;96.10
27413;DHT22;14871;52.702;5.230;2023-03-08T15:08:09;9.20;96.40
27413;DHT22;14871;52.702;5.230;2023-03-08T15:10:37;9.30;95.90
27413;DHT22;14871;52.702;5.230;2023-03-08T15:13:04;9.30;96.00
27413;DHT22;14871;52.702;5.230;2023-03-08T15:15:32;9.40;96.50
27413;DHT22;14871;52.702;5.230;2023-03-08T15:17:58;9.40;96.10
27413;DHT22;14871;52.702;5.230;2023-03-08T15:20:23;9.40;95.00
27413;DHT22;14871;52.702;5.230;2023-03-08T15:22:55;9.30;93.90
27413;DHT22;14871;52.702;5.230;2023-03-08T15:25:36;9.30;93.40
27413;DHT22;14871;52.702;5.230;2023-03-08T15:28:03;9.30;93.00
27413;DHT22;14871;52.702;5.230;2023-03-08T15:30:30;9.20;93.30
27413;DHT22;14871;52.702;5.230;2023-03-08T15:32:56;9.10;93.50
27413;DHT22;14871;52.702;5.230;2023-03-08T15:35:23;9.00;93.40
27413;DHT22;14871;52.702;5.230;2023-03-08T15:37:49;9.00;93.60
27413;DHT22;14871;52.702;5.230;2023-03-08T15:40:21;9.00;93.80
27413;DHT22;14871;52.702;5.230;2023-03-08T15:42:47;8.80;93.40
27413;DHT22;14871;52.702;5.230;2023-03-08T15:45:13;8.80;93.50
27413;DHT22;14871;52.702;5.230;2023-03-08T15:47:39;8.80;93.70
27413;DHT22;14871;52.702;5.230;2023-03-08T15:50:12;8.70;93.90
27413;DHT22;14871;52.702;5.230;2023-03-08T15:52:38;8.70;93.30
27413;DHT22;14871;52.702;5.230;2023-03-08T15:55:04;8.60;93.10
27413;DHT22;14871;52.702;5.230;2023-03-08T15:57:30;8.60;93.70
27413;DHT22;14871;52.702;5.230;2023-03-08T15:59:56;8.50;93.60
27413;DHT22;14871;52.702;5.230;2023-03-08T16:02:23;8.50;93.30
27413;DHT22;14871;52.702;5.230;2023-03-08T16:04:48;8.50;93.10
27413;DHT22;14871;52.702;5.230;2023-03-08T16:07:20;8.40;93.10
27413;DHT22;14871;52.702;5.230;2023-03-08T16:09:46;8.40;93.60
27413;DHT22;14871;52.702;5.230;2023-03-08T16:12:13;8.40;93.80
27413;DHT22;14871;52.702;5.230;2023-03-08T16:14:39;8.30;93.30
27413;DHT22;14871;52.702;5.230;2023-03-08T16:17:05;8.40;93.00
27413;DHT22;14871;52.702;5.230;2023-03-08T16:19:32;8.40;92.80
27413;DHT22;14871;52.702;5.230;2023-03-08T16:21:59;8.50;92.80
27413;DHT22;14871;52.702;5.230;2023-03-08T16:24:24;8.30;92.70
27413;DHT22;14871;52.702;5.230;2023-03-08T16:26:50;8.20;93.00
27413;DHT22;14871;52.702;5.230;2023-03-08T16:29:16;8.10;92.90
27413;DHT22;14871;52.702;5.230;2023-03-08T16:31:41;8.20;92.70
27413;DHT22;14871;52.702;5.230;2023-03-08T16:34:09;8.20;92.70
27413;DHT22;14871;52.702;5.230;2023-03-08T16:36:36;8.20;92.10
27413;DHT22;14871;52.702;5.230;2023-03-08T16:39:03;8.10;92.10
27413;DHT22;14871;52.702;5.230;2023-03-08T16:41:28;8.10;92.50
27413;DHT22;14871;52.702;5.230;2023-03-08T16:43:54;8.00;92.30
27413;DHT22;14871;52.702;5.230;2023-03-08T16:46:21;8.10;92.30
27413;DHT22;14871;52.702;5.230;2023-03-08T16:48:48;8.10;92.50
27413;DHT22;14871;52.702;5.230;2023-03-08T16:51:16;8.10;92.70
27413;DHT22;14871;52.702;5.230;2023-03-08T16:53:42;8.00;92.90
27413;DHT22;14871;52.702;5.230;2023-03-08T16:56:08;8.00;93.10
27413;DHT22;14871;52.702;5.230;2023-03-08T16:58:40;8.00;92.50
27413;DHT22;14871;52.702;5.230;2023-03-08T17:01:13;8.00;92.60
27413;DHT22;14871;52.702;5.230;2023-03-08T17:03:39;8.00;92.50
27413;DHT22;14871;52.702;5.230;2023-03-08T17:06:07;8.00;92.50
27413;DHT22;14871;52.702;5.230;2023-03-08T17:08:32;7.90;92.70
27413;DHT22;14871;52.702;5.230;2023-03-08T17:10:58;7.80;93.10
27413;DHT22;14871;52.702;5.230;2023-03-08T17:13:26;7.90;92.70
27413;DHT22;14871;52.702;5.230;2023-03-08T17:15:51;7.90;92.60
27413;DHT22;14871;52.702;5.230;2023-03-08T17:18:17;7.70;92.60
27413;DHT22;14871;52.702;5.230;2023-03-08T17:20:42;7.70;93.00
27413;DHT22;14871;52.702;5.230;2023-03-08T17:23:09;7.70;93.10
27413;DHT22;14871;52.702;5.230;2023-03-08T17:25:37;7.60;92.80
27413;DHT22;14871;52.702;5.230;2023-03-08T17:28:04;7.60;92.90